Pagina principale
METAR-TAF:

METAR-TAF

Aeroporti :

Ouagadougou, Burkina Faso

Aeroporto di Ouagadougou

latitudine: 12-21N, longitudine: 001-31W, altezza: 316 m

Osservazione

Il bollettino è stato emesso 2 ore e 0 minuti fa, alle 03:00 UTC
Vento 2 kt da est/nord-est
Temperature 24°C
Umidità 22%
Pressione 1010 hPa
Visibilità 10 km o più
nessuna nube inferiore a 1500 m e nessun cumulonembo

METAR: DFFD 180300Z 06002KT CAVOK 24/01 Q1010 NOSIG

Ora: 05:00 (05:00 UTC)

Previsione

Il bollettino è stato emesso 6 ore e 0 minuti fa, alle 23:00 UTC
Previsione valida dal 18 alle 00 UTC al 19 alle 06 UTC
Vento 10 kt da est
Visibilità: 8000 m
Temporaneamente
dal 18 alle 06 UTC al 18 alle 10 UTC
Visibilità: 4000 m
polvere diffusa
Temporaneamente
dal 18 alle 17 UTC al 18 alle 20 UTC
Visibilità: 4000 m
polvere diffusa

TAF: DFFD 172300Z 1800/1906 08010KT 8000 NSC TEMPO 1806/1810 4000 DU TEMPO 1817/1820 4000 DU

Osservazioni e previsioni meteorologiche di più di 4000 aeroporti (messaggi METAR e TAF).

Le stazioni disponibili sono rappresentate dai dischi gialli e rossi sulla carta.

Puntare il mouse per vedere il nome della stazione.

Clicca sopra per visualizzare le osservazioni e previsioni meteorologiche.

Per cambiare la mappa : fare clic sui pulsanti verdi con una croce nera per ingrandire, il pulsante verde con un trattino per diminuire, o sulla freccia verde per le mappe adiacenti.


METAR-TAF: